createdAt,value
2022-08-14T00:00:51.776Z,20.26
2022-08-14T00:03:40.751Z,20.25
2022-08-14T00:06:29.335Z,20.24
2022-08-14T00:09:16.463Z,20.20
2022-08-14T00:12:06.194Z,20.19
2022-08-14T00:15:21.750Z,20.17
2022-08-14T00:18:14.535Z,20.11
2022-08-14T00:21:01.823Z,20.09
2022-08-14T00:23:54.042Z,20.08
2022-08-14T00:26:41.422Z,20.04
2022-08-14T00:29:39.892Z,19.98
2022-08-14T00:32:50.556Z,19.94
2022-08-14T00:36:36.151Z,19.91
2022-08-14T00:38:42.753Z,19.86
2022-08-14T00:41:33.335Z,19.86
2022-08-14T00:44:21.428Z,19.80
2022-08-14T00:47:21.477Z,19.77
2022-08-14T00:50:17.866Z,19.69
2022-08-14T00:53:10.619Z,19.65
2022-08-14T00:55:58.440Z,19.64
2022-08-14T00:58:48.506Z,19.60
2022-08-14T01:01:37.406Z,19.58
2022-08-14T01:04:51.737Z,19.59
2022-08-14T01:07:50.319Z,19.56
2022-08-14T01:10:53.503Z,19.62
2022-08-14T01:13:42.711Z,19.56
2022-08-14T01:16:33.157Z,19.48
2022-08-14T01:19:41.267Z,19.49
2022-08-14T01:22:29.514Z,19.49
2022-08-14T01:25:16.959Z,19.49
2022-08-14T01:28:04.594Z,19.41
2022-08-14T01:30:59.642Z,19.40
2022-08-14T01:35:15.758Z,19.36
2022-08-14T01:36:58.030Z,19.32
2022-08-14T01:39:45.501Z,19.29
2022-08-14T01:42:36.106Z,19.32
2022-08-14T01:45:25.751Z,19.28
2022-08-14T01:48:14.145Z,19.29
2022-08-14T01:51:04.030Z,19.25
2022-08-14T01:53:55.709Z,19.21
2022-08-14T01:56:44.908Z,19.17
2022-08-14T01:59:38.333Z,19.09
2022-08-14T02:02:25.972Z,19.03
2022-08-14T02:05:14.250Z,18.97
2022-08-14T02:08:09.062Z,18.97
2022-08-14T02:11:24.483Z,18.96
2022-08-14T02:14:14.157Z,18.94
2022-08-14T02:17:01.990Z,18.91
2022-08-14T02:19:49.485Z,18.92
2022-08-14T02:22:47.768Z,18.92
2022-08-14T02:25:35.492Z,18.91
2022-08-14T02:28:58.494Z,18.88
2022-08-14T02:31:42.350Z,18.88
2022-08-14T02:34:33.609Z,18.89
2022-08-14T02:37:23.591Z,18.87
2022-08-14T02:40:33.899Z,18.81
2022-08-14T02:43:22.579Z,18.78
2022-08-14T02:46:12.555Z,18.78
2022-08-14T02:49:01.984Z,18.63
2022-08-14T02:51:53.647Z,18.68
2022-08-14T02:54:40.872Z,18.65
2022-08-14T02:57:40.100Z,18.63
2022-08-14T03:00:28.236Z,18.63
2022-08-14T03:03:17.524Z,18.57
2022-08-14T03:06:06.221Z,18.51
2022-08-14T03:08:56.477Z,18.50
2022-08-14T03:11:45.267Z,18.47
2022-08-14T03:14:39.902Z,18.43
2022-08-14T03:17:31.844Z,18.44
2022-08-14T03:20:30.344Z,18.40
2022-08-14T03:23:19.643Z,18.31
2022-08-14T03:26:12.951Z,18.30
2022-08-14T03:29:05.722Z,18.32
2022-08-14T03:32:00.927Z,18.28
2022-08-14T03:34:55.714Z,18.23
2022-08-14T03:39:11.934Z,18.20
2022-08-14T03:40:52.571Z,18.19
2022-08-14T03:43:44.758Z,18.18
2022-08-14T03:46:39.132Z,18.15
2022-08-14T03:49:46.063Z,18.14
2022-08-14T03:52:47.956Z,18.16
2022-08-14T03:55:43.403Z,18.14
2022-08-14T03:58:36.285Z,18.12
2022-08-14T04:01:25.443Z,18.12
2022-08-14T04:04:16.581Z,18.11
2022-08-14T04:07:05.047Z,18.15
2022-08-14T04:09:52.831Z,18.07
2022-08-14T04:12:39.841Z,18.06
2022-08-14T04:15:27.334Z,18.05
2022-08-14T04:18:14.650Z,18.06
2022-08-14T04:21:06.377Z,18.02
2022-08-14T04:23:57.091Z,18.02
2022-08-14T04:26:45.013Z,18.01
2022-08-14T04:29:38.473Z,18.05
2022-08-14T04:33:00.208Z,18.10
2022-08-14T04:35:55.430Z,18.12
2022-08-14T04:39:00.498Z,18.14
2022-08-14T04:42:10.441Z,18.18
2022-08-14T04:45:01.445Z,18.29
2022-08-14T04:48:06.731Z,18.28
2022-08-14T04:50:57.225Z,18.31
2022-08-14T04:53:48.937Z,18.36
2022-08-14T04:56:35.974Z,18.43
2022-08-14T04:59:24.762Z,18.46
2022-08-14T05:02:11.812Z,18.49
2022-08-14T05:04:58.987Z,18.56
2022-08-14T05:07:53.927Z,18.67
2022-08-14T05:10:46.227Z,18.74
2022-08-14T05:14:16.237Z,18.86
2022-08-14T05:16:46.734Z,18.86
2022-08-14T05:19:44.153Z,19.02
2022-08-14T05:22:32.160Z,19.06
2022-08-14T05:25:19.385Z,19.20
2022-08-14T05:28:19.108Z,19.32
2022-08-14T05:31:07.884Z,19.44
2022-08-14T05:33:56.750Z,19.55
2022-08-14T05:36:50.745Z,19.62
2022-08-14T05:39:49.224Z,19.81
2022-08-14T05:42:37.079Z,19.80
2022-08-14T05:45:26.696Z,19.89
2022-08-14T05:48:23.449Z,19.93
2022-08-14T05:51:22.561Z,20.10
2022-08-14T05:54:12.795Z,20.16
2022-08-14T05:57:12.297Z,20.26
2022-08-14T05:59:59.285Z,20.47
2022-08-14T06:02:47.410Z,20.64
2022-08-14T06:05:35.431Z,20.85
2022-08-14T06:08:36.462Z,20.99
2022-08-14T06:11:31.408Z,21.31
2022-08-14T06:14:21.541Z,21.55
2022-08-14T06:17:11.622Z,21.56
2022-08-14T06:20:14.227Z,21.86
2022-08-14T06:23:02.176Z,21.92
2022-08-14T06:25:52.746Z,22.12
2022-08-14T06:28:41.019Z,22.21
2022-08-14T06:31:32.875Z,22.39
2022-08-14T06:35:10.582Z,22.49
2022-08-14T06:37:39.585Z,22.61
2022-08-14T06:40:34.931Z,22.84
2022-08-14T06:43:27.021Z,22.99
2022-08-14T06:46:22.935Z,23.25
2022-08-14T06:49:19.789Z,23.20
2022-08-14T06:52:07.143Z,23.36
2022-08-14T06:54:57.241Z,23.62
2022-08-14T06:57:46.818Z,23.87
2022-08-14T07:00:34.022Z,23.76
2022-08-14T07:03:39.545Z,23.83
2022-08-14T07:06:46.597Z,24.02
2022-08-14T07:09:44.371Z,24.26
2022-08-14T07:12:56.631Z,24.41
2022-08-14T07:15:50.843Z,24.54
2022-08-14T07:18:42.497Z,24.46
2022-08-14T07:21:29.774Z,24.56
2022-08-14T07:24:21.874Z,24.69
2022-08-14T07:27:09.575Z,25.04
2022-08-14T07:29:56.666Z,25.20
2022-08-14T07:32:44.014Z,25.19
2022-08-14T07:35:42.933Z,25.30
2022-08-14T07:38:43.709Z,25.34
2022-08-14T07:41:42.354Z,25.52
2022-08-14T07:44:35.712Z,25.51
2022-08-14T07:47:23.157Z,25.72
2022-08-14T07:50:16.684Z,26.02
2022-08-14T07:53:09.517Z,26.04
2022-08-14T07:56:00.270Z,26.27
2022-08-14T07:58:58.406Z,26.57
2022-08-14T08:01:51.400Z,26.66
2022-08-14T08:04:47.327Z,26.89
2022-08-14T08:07:39.132Z,26.48
2022-08-14T08:11:02.237Z,26.68
2022-08-14T08:13:49.133Z,26.86
2022-08-14T08:16:42.419Z,27.04
2022-08-14T08:19:36.909Z,27.15
2022-08-14T08:22:27.377Z,27.38
2022-08-14T08:25:19.743Z,27.53
2022-08-14T08:28:22.211Z,27.44
2022-08-14T08:31:13.291Z,27.84
2022-08-14T08:34:06.554Z,27.99
2022-08-14T08:36:53.750Z,27.86
2022-08-14T08:40:01.429Z,27.95
2022-08-14T08:42:50.962Z,27.90
2022-08-14T08:45:40.396Z,27.91
2022-08-14T08:48:31.649Z,28.25
2022-08-14T08:51:34.313Z,28.45
2022-08-14T08:54:26.821Z,28.36
2022-08-14T08:57:21.350Z,28.80
2022-08-14T09:00:25.172Z,28.95
2022-08-14T09:03:17.834Z,28.88
2022-08-14T09:06:09.502Z,28.60
2022-08-14T09:09:26.851Z,28.69
2022-08-14T09:12:21.961Z,29.08
2022-08-14T09:15:12.929Z,29.25
2022-08-14T09:18:01.037Z,29.39
2022-08-14T09:20:54.683Z,29.67
2022-08-14T09:24:26.181Z,29.41
2022-08-14T09:26:53.299Z,29.41
2022-08-14T09:29:41.657Z,30.04
2022-08-14T09:32:59.000Z,30.08
2022-08-14T09:36:04.432Z,30.14
2022-08-14T09:39:10.649Z,30.06
2022-08-14T09:42:35.236Z,30.52
2022-08-14T09:45:39.935Z,30.13
2022-08-14T09:48:40.091Z,30.11
2022-08-14T09:51:32.649Z,30.65
2022-08-14T09:54:22.965Z,30.93
2022-08-14T09:57:28.842Z,30.92
2022-08-14T10:00:29.211Z,30.84
2022-08-14T10:03:36.422Z,31.10
2022-08-14T10:06:28.351Z,31.70
2022-08-14T10:09:16.817Z,30.65
2022-08-14T10:12:18.674Z,30.90
2022-08-14T10:15:21.256Z,30.72
2022-08-14T10:18:18.264Z,31.01
2022-08-14T10:21:09.677Z,31.40
2022-08-14T10:23:57.045Z,31.65
2022-08-14T10:27:00.596Z,31.22
2022-08-14T10:29:52.376Z,31.10
2022-08-14T10:32:51.691Z,31.26
2022-08-14T10:35:41.742Z,31.29
2022-08-14T10:38:36.634Z,31.39
2022-08-14T10:41:46.594Z,31.16
2022-08-14T10:44:47.803Z,31.51
2022-08-14T10:48:06.756Z,31.31
2022-08-14T10:50:51.642Z,31.62
2022-08-14T10:53:40.347Z,31.24
2022-08-14T10:56:36.554Z,31.91
2022-08-14T10:59:35.445Z,31.91
2022-08-14T11:02:54.090Z,32.34
2022-08-14T11:05:47.569Z,32.19
2022-08-14T11:08:35.487Z,31.86
2022-08-14T11:11:28.625Z,31.26
2022-08-14T11:14:26.402Z,32.25
2022-08-14T11:17:14.658Z,32.23
2022-08-14T11:20:14.018Z,31.84
2022-08-14T11:23:05.413Z,32.48
2022-08-14T11:25:58.796Z,32.48
2022-08-14T11:28:50.022Z,32.37
2022-08-14T11:31:38.991Z,32.45
2022-08-14T11:34:31.890Z,32.54
2022-08-14T11:37:31.628Z,32.31
2022-08-14T11:40:30.809Z,31.80
2022-08-14T11:43:29.598Z,30.57
2022-08-14T11:46:29.735Z,30.60
2022-08-14T11:49:34.871Z,31.18
2022-08-14T11:52:22.640Z,31.77
2022-08-14T11:55:12.814Z,31.83
2022-08-14T11:58:10.365Z,31.80
2022-08-14T12:01:04.777Z,31.48
2022-08-14T12:03:57.075Z,31.67
2022-08-14T12:06:52.904Z,31.69
2022-08-14T12:09:42.961Z,31.38
2022-08-14T12:12:35.919Z,31.43
2022-08-14T12:15:36.449Z,30.96
2022-08-14T12:18:34.970Z,31.15
2022-08-14T12:21:29.426Z,30.91
2022-08-14T12:24:36.084Z,31.27
2022-08-14T12:27:34.671Z,31.41
2022-08-14T12:30:35.989Z,31.78
2022-08-14T12:33:34.103Z,32.45
2022-08-14T12:36:25.307Z,32.30
2022-08-14T12:39:24.610Z,32.05
2022-08-14T12:42:27.389Z,32.13
2022-08-14T12:45:33.052Z,32.25
2022-08-14T12:48:31.656Z,31.71
2022-08-14T12:51:27.126Z,31.49
2022-08-14T12:54:28.560Z,31.21
2022-08-14T12:57:20.065Z,31.43
2022-08-14T13:00:22.827Z,31.35
2022-08-14T13:03:24.632Z,31.44
2022-08-14T13:06:14.825Z,31.20
2022-08-14T13:09:11.276Z,31.93
2022-08-14T13:12:32.065Z,32.75
2022-08-14T13:15:14.286Z,32.96
2022-08-14T13:18:04.609Z,33.70
2022-08-14T13:20:57.990Z,33.40
2022-08-14T13:23:47.452Z,32.75
2022-08-14T13:26:37.701Z,32.76
2022-08-14T13:29:31.737Z,32.88
2022-08-14T13:32:21.802Z,33.07
2022-08-14T13:35:16.405Z,32.96
2022-08-14T13:38:05.065Z,33.37
2022-08-14T13:40:57.768Z,33.21
2022-08-14T13:43:59.928Z,32.57
2022-08-14T13:46:48.596Z,32.54
2022-08-14T13:49:56.997Z,32.92
2022-08-14T13:52:55.530Z,33.64
2022-08-14T13:55:44.919Z,33.87
2022-08-14T13:58:40.529Z,34.61
2022-08-14T14:01:42.986Z,34.26
2022-08-14T14:04:31.472Z,34.55
2022-08-14T14:07:23.408Z,33.44
2022-08-14T14:10:12.986Z,33.73
2022-08-14T14:13:02.201Z,33.56
2022-08-14T14:15:58.275Z,33.49
2022-08-14T14:18:52.648Z,33.13
2022-08-14T14:21:40.740Z,33.08
2022-08-14T14:24:34.822Z,33.39
2022-08-14T14:27:40.554Z,33.63
2022-08-14T14:30:52.394Z,33.31
2022-08-14T14:33:47.569Z,33.00
2022-08-14T14:36:37.115Z,32.71
2022-08-14T14:39:37.678Z,33.28
2022-08-14T14:42:32.300Z,33.47
2022-08-14T14:45:22.946Z,34.00
2022-08-14T14:48:15.638Z,34.27
2022-08-14T14:51:03.523Z,34.16
2022-08-14T14:53:52.523Z,34.15
2022-08-14T14:56:51.687Z,34.48
2022-08-14T14:59:39.966Z,34.29
2022-08-14T15:02:34.297Z,34.26
2022-08-14T15:05:24.350Z,34.54
2022-08-14T15:08:26.907Z,34.29
2022-08-14T15:11:30.145Z,34.41
2022-08-14T15:14:56.030Z,34.28
2022-08-14T15:17:41.598Z,34.43
2022-08-14T15:20:30.374Z,33.67
2022-08-14T15:23:22.822Z,33.31
2022-08-14T15:26:12.850Z,33.43
2022-08-14T15:29:18.195Z,33.16
2022-08-14T15:32:09.266Z,32.90
2022-08-14T15:34:58.153Z,32.59
2022-08-14T15:37:45.264Z,32.46
2022-08-14T15:40:41.052Z,32.64
2022-08-14T15:43:35.130Z,32.52
2022-08-14T15:46:43.623Z,32.75
2022-08-14T15:49:34.485Z,32.62
2022-08-14T15:52:32.973Z,32.77
2022-08-14T15:55:23.043Z,33.10
2022-08-14T15:58:14.301Z,33.31
2022-08-14T16:01:50.821Z,33.40
2022-08-14T16:04:28.875Z,33.22
2022-08-14T16:07:16.946Z,32.88
2022-08-14T16:10:28.645Z,33.01
2022-08-14T16:13:17.191Z,33.12
2022-08-14T16:16:49.159Z,32.84
2022-08-14T16:19:32.097Z,33.04
2022-08-14T16:22:58.094Z,32.68
2022-08-14T16:25:35.441Z,32.83
2022-08-14T16:28:27.364Z,32.63
2022-08-14T16:31:15.844Z,32.78
2022-08-14T16:34:44.315Z,33.41
2022-08-14T16:37:16.604Z,33.54
2022-08-14T16:40:04.486Z,34.00
2022-08-14T16:43:04.032Z,34.41
2022-08-14T16:46:00.383Z,34.26
2022-08-14T16:48:57.176Z,33.75
2022-08-14T16:51:46.410Z,32.90
2022-08-14T16:54:45.086Z,32.52
2022-08-14T16:57:33.015Z,32.10
2022-08-14T17:00:32.850Z,31.74
2022-08-14T17:03:20.680Z,31.45
2022-08-14T17:06:33.436Z,31.36
2022-08-14T17:09:43.333Z,31.42
2022-08-14T17:12:35.026Z,31.39
2022-08-14T17:15:27.791Z,31.03
2022-08-14T17:18:22.455Z,31.13
2022-08-14T17:21:31.286Z,31.04
2022-08-14T17:24:55.948Z,30.82
2022-08-14T17:27:27.742Z,30.73
2022-08-14T17:30:32.798Z,30.47
2022-08-14T17:33:44.219Z,30.37
2022-08-14T17:36:32.586Z,30.03
2022-08-14T17:39:21.837Z,29.86
2022-08-14T17:42:32.739Z,29.82
2022-08-14T17:45:28.462Z,29.79
2022-08-14T17:49:10.825Z,29.78
2022-08-14T17:52:02.043Z,29.57
2022-08-14T17:54:52.879Z,29.41
2022-08-14T17:57:51.359Z,29.33
2022-08-14T18:00:39.228Z,29.31
2022-08-14T18:03:51.030Z,29.27
2022-08-14T18:06:57.761Z,29.20
2022-08-14T18:09:56.997Z,29.13
2022-08-14T18:12:47.582Z,29.03
2022-08-14T18:15:38.173Z,29.01
2022-08-14T18:18:32.078Z,28.88
2022-08-14T18:21:56.358Z,28.78
2022-08-14T18:24:32.192Z,28.66
2022-08-14T18:27:26.962Z,28.54
2022-08-14T18:30:33.298Z,28.42
2022-08-14T18:33:33.197Z,28.18
2022-08-14T18:36:46.778Z,28.13
2022-08-14T18:40:02.102Z,28.02
2022-08-14T18:42:57.150Z,27.96
2022-08-14T18:46:01.694Z,27.78
2022-08-14T18:49:15.198Z,27.67
2022-08-14T18:52:18.896Z,27.59
2022-08-14T18:55:16.006Z,27.50
2022-08-14T18:58:28.212Z,27.40
2022-08-14T19:01:33.773Z,27.36
2022-08-14T19:04:37.846Z,27.19
2022-08-14T19:07:33.912Z,27.14
2022-08-14T19:10:37.433Z,27.12
2022-08-14T19:13:44.560Z,27.10
2022-08-14T19:16:43.182Z,27.06
2022-08-14T19:19:40.725Z,26.97
2022-08-14T19:22:32.946Z,26.89
2022-08-14T19:25:51.809Z,26.85
2022-08-14T19:28:49.398Z,26.74
2022-08-14T19:31:42.277Z,26.68
2022-08-14T19:34:48.012Z,26.58
2022-08-14T19:37:54.024Z,26.54
2022-08-14T19:40:42.871Z,26.48
2022-08-14T19:43:55.968Z,26.45
2022-08-14T19:47:01.486Z,26.43
2022-08-14T19:50:30.216Z,26.43
2022-08-14T19:53:11.357Z,26.24
2022-08-14T19:56:02.212Z,26.19
2022-08-14T19:58:54.573Z,26.17
2022-08-14T20:01:44.896Z,26.11
2022-08-14T20:04:47.586Z,26.07
2022-08-14T20:07:59.758Z,25.99
2022-08-14T20:11:04.858Z,25.84
2022-08-14T20:14:20.643Z,25.83
2022-08-14T20:17:19.039Z,25.73
2022-08-14T20:20:32.449Z,25.82
2022-08-14T20:23:20.479Z,25.70
2022-08-14T20:26:30.555Z,25.71
2022-08-14T20:29:30.048Z,25.64
2022-08-14T20:32:17.155Z,25.69
2022-08-14T20:35:07.971Z,25.67
2022-08-14T20:38:31.325Z,25.66
2022-08-14T20:41:20.605Z,25.62
2022-08-14T20:44:28.777Z,25.75
2022-08-14T20:47:18.866Z,25.85
2022-08-14T20:50:22.386Z,25.80
2022-08-14T20:53:26.379Z,25.75
2022-08-14T20:56:28.908Z,25.78
2022-08-14T20:59:18.305Z,25.76
2022-08-14T21:02:34.543Z,25.82
2022-08-14T21:05:36.439Z,25.75
2022-08-14T21:08:26.049Z,25.67
2022-08-14T21:11:20.611Z,25.55
2022-08-14T21:14:19.016Z,25.63
2022-08-14T21:17:14.836Z,25.60
2022-08-14T21:20:25.571Z,25.58
2022-08-14T21:23:14.397Z,25.50
2022-08-14T21:26:03.695Z,25.36
2022-08-14T21:28:52.571Z,25.29
2022-08-14T21:31:40.394Z,25.21
2022-08-14T21:34:32.659Z,25.25
2022-08-14T21:37:19.738Z,25.35
2022-08-14T21:40:40.908Z,25.29
2022-08-14T21:43:19.351Z,25.33
2022-08-14T21:46:06.665Z,25.23
2022-08-14T21:48:53.818Z,25.21
2022-08-14T21:51:55.240Z,25.18
2022-08-14T21:54:49.765Z,25.22
2022-08-14T21:58:04.143Z,25.23
2022-08-14T22:00:52.962Z,25.16
2022-08-14T22:03:44.967Z,25.05
2022-08-14T22:06:36.403Z,24.98
2022-08-14T22:09:29.407Z,25.00
2022-08-14T22:12:58.940Z,25.09
2022-08-14T22:15:32.779Z,25.04
2022-08-14T22:18:21.713Z,24.95
2022-08-14T22:21:16.816Z,24.99
2022-08-14T22:24:10.508Z,25.03
2022-08-14T22:27:01.967Z,24.91
2022-08-14T22:29:54.536Z,24.82
2022-08-14T22:32:57.933Z,24.84
2022-08-14T22:35:45.571Z,24.85
2022-08-14T22:38:36.243Z,24.92
2022-08-14T22:41:31.520Z,24.97
2022-08-14T22:44:28.465Z,25.04
2022-08-14T22:47:16.160Z,25.06
2022-08-14T22:50:31.116Z,25.05
2022-08-14T22:53:12.535Z,25.03
2022-08-14T22:55:59.557Z,25.03
2022-08-14T22:58:46.592Z,24.93
2022-08-14T23:02:03.824Z,25.02
2022-08-14T23:04:53.895Z,25.06
2022-08-14T23:08:58.289Z,25.06
2022-08-14T23:10:48.869Z,25.40
2022-08-14T23:13:40.410Z,25.54
2022-08-14T23:16:31.357Z,25.64
2022-08-14T23:19:20.619Z,25.76
2022-08-14T23:22:07.677Z,25.69
2022-08-14T23:24:58.042Z,25.60
2022-08-14T23:28:03.133Z,25.72
2022-08-14T23:30:51.070Z,25.52
2022-08-14T23:33:45.665Z,25.46
2022-08-14T23:36:38.020Z,25.23
2022-08-14T23:39:40.429Z,25.16
2022-08-14T23:42:40.139Z,25.07
2022-08-14T23:45:37.205Z,25.00
2022-08-14T23:48:27.913Z,24.79
2022-08-14T23:51:17.701Z,24.76
2022-08-14T23:54:49.201Z,24.68
2022-08-14T23:57:14.838Z,24.58
